createdAt,value
2022-10-14T00:01:24.280Z,100499.06
2022-10-14T00:03:52.508Z,100501.41
2022-10-14T00:06:27.044Z,100496.31
2022-10-14T00:08:54.875Z,100497.13
2022-10-14T00:11:29.871Z,100494.50
2022-10-14T00:14:03.848Z,100501.84
2022-10-14T00:16:35.528Z,100495.97
2022-10-14T00:19:04.177Z,100496.78
2022-10-14T00:21:32.250Z,100503.47
2022-10-14T00:23:59.427Z,100499.06
2022-10-14T00:26:38.751Z,100502.00
2022-10-14T00:29:11.370Z,100501.50
2022-10-14T00:31:38.476Z,100496.84
2022-10-14T00:34:05.413Z,100499.72
2022-10-14T00:36:32.452Z,100500.09
2022-10-14T00:38:59.459Z,100497.16
2022-10-14T00:41:33.110Z,100494.50
2022-10-14T00:44:27.963Z,100496.47
2022-10-14T00:46:56.105Z,100496.47
2022-10-14T00:49:37.471Z,100499.44
2022-10-14T00:52:10.902Z,100498.44
2022-10-14T00:55:04.789Z,100493.84
2022-10-14T00:57:32.387Z,100489.13
2022-10-14T01:00:08.949Z,100485.69
2022-10-14T01:02:36.447Z,100482.75
2022-10-14T01:05:06.276Z,100477.16
2022-10-14T01:07:47.237Z,100477.19
2022-10-14T01:10:33.166Z,100486.19
2022-10-14T01:13:29.748Z,100492.56
2022-10-14T01:16:14.764Z,100487.78
2022-10-14T01:18:53.531Z,100485.34
2022-10-14T01:21:27.134Z,100484.41
2022-10-14T01:24:14.886Z,100492.19
2022-10-14T01:26:59.922Z,100488.63
2022-10-14T01:29:57.091Z,100485.66
2022-10-14T01:33:15.942Z,100485.69
2022-10-14T01:36:09.026Z,100482.88
2022-10-14T01:38:52.372Z,100482.53
2022-10-14T01:41:35.931Z,100477.31
2022-10-14T01:44:10.670Z,100477.50
2022-10-14T01:46:41.475Z,100479.75
2022-10-14T01:49:14.111Z,100472.91
2022-10-14T01:51:55.096Z,100471.63
2022-10-14T01:54:39.762Z,100475.38
2022-10-14T01:57:11.963Z,100465.69
2022-10-14T01:59:40.543Z,100467.50
2022-10-14T02:02:07.597Z,100465.56
2022-10-14T02:04:34.573Z,100457.22
2022-10-14T02:07:23.452Z,100450.69
2022-10-14T02:10:27.851Z,100444.00
2022-10-14T02:13:08.037Z,100437.59
2022-10-14T02:15:57.314Z,100442.31
2022-10-14T02:18:38.274Z,100438.22
2022-10-14T02:21:37.418Z,100435.28
2022-10-14T02:24:11.010Z,100432.84
2022-10-14T02:26:40.058Z,100428.44
2022-10-14T02:29:07.127Z,100419.91
2022-10-14T02:31:38.083Z,100416.66
2022-10-14T02:34:09.564Z,100421.22
2022-10-14T02:36:37.454Z,100417.44
2022-10-14T02:39:08.047Z,100405.69
2022-10-14T02:41:37.983Z,100405.53
2022-10-14T02:44:08.378Z,100398.00
2022-10-14T02:46:36.061Z,100403.91
2022-10-14T02:49:03.054Z,100403.25
2022-10-14T02:51:29.940Z,100396.03
2022-10-14T02:53:57.835Z,100392.63
2022-10-14T02:56:24.961Z,100380.34
2022-10-14T02:58:51.978Z,100380.19
2022-10-14T03:01:19.005Z,100383.31
2022-10-14T03:03:45.979Z,100379.06
2022-10-14T03:06:12.904Z,100377.72
2022-10-14T03:08:39.819Z,100374.13
2022-10-14T03:11:06.871Z,100370.19
2022-10-14T03:13:34.028Z,100371.84
2022-10-14T03:16:00.949Z,100363.19
2022-10-14T03:18:27.860Z,100363.84
2022-10-14T03:20:54.866Z,100365.13
2022-10-14T03:23:21.743Z,100372.03
2022-10-14T03:25:48.636Z,100369.56
2022-10-14T03:28:15.658Z,100376.13
2022-10-14T03:30:42.945Z,100369.56
2022-10-14T03:33:12.172Z,100368.59
2022-10-14T03:35:42.197Z,100365.16
2022-10-14T03:38:09.271Z,100361.22
2022-10-14T03:40:36.352Z,100367.13
2022-10-14T03:43:03.343Z,100361.72
2022-10-14T03:45:30.269Z,100359.41
2022-10-14T03:47:57.285Z,100356.66
2022-10-14T03:50:24.395Z,100353.25
2022-10-14T03:52:55.452Z,100347.19
2022-10-14T03:55:23.492Z,100342.25
2022-10-14T03:57:51.824Z,100338.31
2022-10-14T04:00:19.214Z,100337.19
2022-10-14T04:02:46.141Z,100342.09
2022-10-14T04:05:13.497Z,100338.78
2022-10-14T04:07:40.481Z,100332.56
2022-10-14T04:10:08.379Z,100328.00
2022-10-14T04:12:35.254Z,100326.81
2022-10-14T04:15:02.144Z,100322.03
2022-10-14T04:17:29.003Z,100326.09
2022-10-14T04:19:55.866Z,100327.06
2022-10-14T04:22:23.280Z,100332.13
2022-10-14T04:24:50.911Z,100332.47
2022-10-14T04:27:18.542Z,100329.56
2022-10-14T04:29:45.419Z,100338.19
2022-10-14T04:32:12.386Z,100325.59
2022-10-14T04:34:39.351Z,100323.97
2022-10-14T04:37:06.259Z,100327.41
2022-10-14T04:39:33.141Z,100317.75
2022-10-14T04:42:00.041Z,100323.16
2022-10-14T04:44:26.955Z,100313.53
2022-10-14T04:46:53.912Z,100314.53
2022-10-14T04:49:20.907Z,100307.06
2022-10-14T04:51:47.768Z,100298.19
2022-10-14T04:54:14.714Z,100301.16
2022-10-14T04:56:41.594Z,100301.84
2022-10-14T04:59:08.499Z,100296.00
2022-10-14T05:01:35.556Z,100295.66
2022-10-14T05:04:02.643Z,100295.34
2022-10-14T05:06:29.726Z,100288.16
2022-10-14T05:08:56.615Z,100285.56
2022-10-14T05:11:23.863Z,100284.56
2022-10-14T05:13:51.118Z,100275.44
2022-10-14T05:16:18.344Z,100282.09
2022-10-14T05:18:45.384Z,100258.75
2022-10-14T05:21:12.443Z,100257.78
2022-10-14T05:23:39.407Z,100251.41
2022-10-14T05:26:07.021Z,100250.44
2022-10-14T05:28:33.992Z,100250.59
2022-10-14T05:31:00.950Z,100256.66
2022-10-14T05:33:28.190Z,100258.56
2022-10-14T05:35:58.969Z,100273.09
2022-10-14T05:38:26.730Z,100270.78
2022-10-14T05:40:57.699Z,100264.59
2022-10-14T05:43:30.935Z,100263.03
2022-10-14T05:45:59.877Z,100266.94
2022-10-14T05:48:27.123Z,100264.00
2022-10-14T05:50:54.296Z,100258.94
2022-10-14T05:53:21.200Z,100257.44
2022-10-14T05:55:48.471Z,100270.88
2022-10-14T05:58:15.505Z,100265.63
2022-10-14T06:00:42.482Z,100269.53
2022-10-14T06:03:13.017Z,100261.69
2022-10-14T06:05:40.041Z,100266.97
2022-10-14T06:08:07.029Z,100271.53
2022-10-14T06:10:35.574Z,100272.81
2022-10-14T06:13:02.798Z,100262.84
2022-10-14T06:15:29.733Z,100266.94
2022-10-14T06:17:56.700Z,100258.44
2022-10-14T06:20:23.678Z,100263.69
2022-10-14T06:22:50.554Z,100259.59
2022-10-14T06:25:17.654Z,100264.31
2022-10-14T06:27:44.568Z,100264.31
2022-10-14T06:30:12.713Z,100269.38
2022-10-14T06:32:39.811Z,100261.84
2022-10-14T06:35:07.784Z,100262.38
2022-10-14T06:37:34.916Z,100267.09
2022-10-14T06:40:01.924Z,100260.66
2022-10-14T06:42:28.900Z,100259.69
2022-10-14T06:44:55.988Z,100248.91
2022-10-14T06:47:22.994Z,100247.41
2022-10-14T06:49:49.984Z,100254.25
2022-10-14T06:52:16.867Z,100250.47
2022-10-14T06:54:48.167Z,100258.03
2022-10-14T06:57:16.184Z,100249.34
2022-10-14T06:59:43.611Z,100253.75
2022-10-14T07:02:11.087Z,100248.47
2022-10-14T07:04:40.180Z,100242.56
2022-10-14T07:07:08.530Z,100253.75
2022-10-14T07:09:35.571Z,100252.53
2022-10-14T07:12:02.502Z,100251.56
2022-10-14T07:14:29.462Z,100251.06
2022-10-14T07:16:56.425Z,100246.84
2022-10-14T07:19:23.386Z,100236.41
2022-10-14T07:21:50.501Z,100234.47
2022-10-14T07:24:17.440Z,100236.28
2022-10-14T07:26:44.430Z,100246.81
2022-10-14T07:29:11.461Z,100239.84
2022-10-14T07:31:38.414Z,100245.09
2022-10-14T07:34:05.479Z,100242.03
2022-10-14T07:36:32.444Z,100243.75
2022-10-14T07:39:01.117Z,100245.56
2022-10-14T07:41:29.122Z,100249.00
2022-10-14T07:44:03.274Z,100254.88
2022-10-14T07:46:34.312Z,100249.09
2022-10-14T07:49:05.607Z,100246.00
2022-10-14T07:51:34.159Z,100248.44
2022-10-14T07:54:03.826Z,100252.28
2022-10-14T07:56:30.993Z,100249.91
2022-10-14T07:58:59.367Z,100247.53
2022-10-14T08:01:26.302Z,100251.09
2022-10-14T08:03:53.776Z,100248.06
2022-10-14T08:06:20.692Z,100242.81
2022-10-14T08:08:47.651Z,100231.84
2022-10-14T08:11:19.808Z,100236.41
2022-10-14T08:13:47.403Z,100229.63
2022-10-14T08:16:29.283Z,100229.34
2022-10-14T08:18:59.505Z,100230.91
2022-10-14T08:21:27.133Z,100226.34
2022-10-14T08:23:55.051Z,100224.28
2022-10-14T08:26:30.950Z,100224.78
2022-10-14T08:29:09.900Z,100221.00
2022-10-14T08:31:37.328Z,100226.13
2022-10-14T08:34:04.335Z,100224.16
2022-10-14T08:36:31.458Z,100235.84
2022-10-14T08:38:58.416Z,100223.34
2022-10-14T08:41:51.026Z,100231.78
2022-10-14T08:44:49.739Z,100230.97
2022-10-14T08:47:22.326Z,100230.25
2022-10-14T08:50:24.006Z,100220.53
2022-10-14T08:53:01.962Z,100224.31
2022-10-14T08:55:44.985Z,100234.13
2022-10-14T08:58:28.931Z,100224.75
2022-10-14T09:00:56.483Z,100219.75
2022-10-14T09:03:33.068Z,100225.84
2022-10-14T09:06:17.042Z,100218.81
2022-10-14T09:08:48.331Z,100218.63
2022-10-14T09:11:21.541Z,100227.72
2022-10-14T09:14:10.143Z,100222.38
2022-10-14T09:16:40.245Z,100222.31
2022-10-14T09:19:18.322Z,100216.44
2022-10-14T09:21:54.570Z,100218.13
2022-10-14T09:24:27.882Z,100215.47
2022-10-14T09:27:15.309Z,100206.09
2022-10-14T09:29:49.551Z,100199.44
2022-10-14T09:32:34.493Z,100207.25
2022-10-14T09:35:02.665Z,100197.06
2022-10-14T09:37:36.594Z,100189.84
2022-10-14T09:40:12.454Z,100184.13
2022-10-14T09:43:10.498Z,100187.72
2022-10-14T09:45:51.999Z,100188.53
2022-10-14T09:48:39.172Z,100185.19
2022-10-14T09:51:18.849Z,100186.44
2022-10-14T09:53:59.613Z,100186.03
2022-10-14T09:56:40.635Z,100182.72
2022-10-14T09:59:19.722Z,100181.50
2022-10-14T10:01:52.740Z,100184.03
2022-10-14T10:04:31.412Z,100176.88
2022-10-14T10:07:01.664Z,100181.22
2022-10-14T10:09:28.760Z,100174.28
2022-10-14T10:11:55.904Z,100166.53
2022-10-14T10:14:30.147Z,100180.97
2022-10-14T10:17:12.621Z,100167.44
2022-10-14T10:19:43.231Z,100170.56
2022-10-14T10:22:26.625Z,100168.34
2022-10-14T10:25:03.460Z,100163.06
2022-10-14T10:27:38.669Z,100162.88
2022-10-14T10:30:17.875Z,100160.13
2022-10-14T10:33:12.259Z,100163.66
2022-10-14T10:35:57.660Z,100157.03
2022-10-14T10:39:02.134Z,100147.34
2022-10-14T10:41:40.483Z,100135.22
2022-10-14T10:44:41.129Z,100129.91
2022-10-14T10:47:31.516Z,100124.22
2022-10-14T10:50:21.425Z,100140.13
2022-10-14T10:53:32.848Z,100135.38
2022-10-14T10:56:07.040Z,100136.50
2022-10-14T10:59:30.418Z,100133.50
2022-10-14T11:02:12.443Z,100124.78
2022-10-14T11:05:04.693Z,100121.69
2022-10-14T11:08:14.443Z,100117.81
2022-10-14T11:11:40.349Z,100119.88
2022-10-14T11:14:21.424Z,100099.66
2022-10-14T11:17:24.146Z,100094.19
2022-10-14T11:20:36.967Z,100098.72
2022-10-14T11:23:48.584Z,100096.94
2022-10-14T11:27:08.648Z,100092.31
2022-10-14T11:30:15.978Z,100071.72
2022-10-14T11:33:37.400Z,100065.88
2022-10-14T11:36:32.426Z,100065.69
2022-10-14T11:39:14.934Z,100061.19
2022-10-14T11:42:13.535Z,100065.03
2022-10-14T11:44:44.494Z,100062.84
2022-10-14T11:47:31.973Z,100042.31
2022-10-14T11:50:37.558Z,100052.72
2022-10-14T11:53:25.531Z,100065.25
2022-10-14T11:56:29.672Z,100060.06
2022-10-14T11:59:03.751Z,100054.84
2022-10-14T12:01:37.244Z,100045.44
2022-10-14T12:04:16.409Z,100039.81
2022-10-14T12:06:51.832Z,100048.00
2022-10-14T12:09:42.546Z,100045.19
2022-10-14T12:12:13.767Z,100032.66
2022-10-14T12:14:50.271Z,100028.78
2022-10-14T12:17:35.470Z,100025.13
2022-10-14T12:20:29.628Z,100031.41
2022-10-14T12:22:58.326Z,100030.66
2022-10-14T12:25:32.884Z,100024.13
2022-10-14T12:28:00.062Z,100034.88
2022-10-14T12:30:38.287Z,100022.94
2022-10-14T12:33:11.584Z,100025.56
2022-10-14T12:35:46.483Z,100015.69
2022-10-14T12:38:14.017Z,100019.72
2022-10-14T12:40:41.154Z,100016.28
2022-10-14T12:43:25.067Z,100014.03
2022-10-14T12:46:03.834Z,100007.34
2022-10-14T12:48:33.958Z,100022.16
2022-10-14T12:51:24.127Z,100014.06
2022-10-14T12:54:14.474Z,100030.22
2022-10-14T12:56:57.938Z,100021.31
2022-10-14T12:59:38.169Z,100020.09
2022-10-14T13:02:33.790Z,100027.34
2022-10-14T13:05:09.459Z,100028.56
2022-10-14T13:07:47.036Z,100036.69
2022-10-14T13:10:36.022Z,100037.25
2022-10-14T13:13:42.155Z,100041.50
2022-10-14T13:16:21.362Z,100038.06
2022-10-14T13:18:59.803Z,100033.81
2022-10-14T13:21:38.530Z,100029.19
2022-10-14T13:24:10.965Z,100030.53
2022-10-14T13:26:49.343Z,100023.44
2022-10-14T13:30:02.939Z,100018.16
2022-10-14T13:32:43.377Z,100017.53
2022-10-14T13:35:29.085Z,100006.59
2022-10-14T13:38:06.651Z,100003.78
2022-10-14T13:40:43.030Z,100000.28
2022-10-14T13:43:26.892Z,100002.09
2022-10-14T13:46:03.768Z,99999.72
2022-10-14T13:48:33.553Z,99995.84
2022-10-14T13:51:31.907Z,99992.84
2022-10-14T13:54:24.918Z,100006.53
2022-10-14T13:57:53.693Z,100002.84
2022-10-14T14:02:53.328Z,100007.16
2022-10-14T14:05:21.847Z,100004.38
2022-10-14T14:10:46.774Z,99999.94
2022-10-14T14:13:25.615Z,99997.91
2022-10-14T14:15:54.833Z,99995.91
2022-10-14T14:19:03.568Z,99987.13
2022-10-14T14:21:34.505Z,99993.81
2022-10-14T14:24:02.484Z,99988.47
2022-10-14T14:26:37.561Z,99984.16
2022-10-14T14:29:07.578Z,99981.41
2022-10-14T14:32:05.124Z,99978.78
2022-10-14T14:34:23.419Z,99986.44
2022-10-14T14:36:55.433Z,99984.56
2022-10-14T14:39:30.380Z,99987.69
2022-10-14T14:42:01.958Z,99980.25
2022-10-14T14:44:32.798Z,99981.22
2022-10-14T14:47:03.035Z,99994.34
2022-10-14T14:49:33.551Z,99982.34
2022-10-14T14:52:01.901Z,99981.94
2022-10-14T14:54:28.996Z,99973.06
2022-10-14T14:57:08.479Z,99968.25
2022-10-14T14:59:42.495Z,99970.69
2022-10-14T15:02:21.199Z,99969.88
2022-10-14T15:05:09.539Z,99959.38
2022-10-14T15:07:37.105Z,99949.66
2022-10-14T15:10:08.236Z,99944.84
2022-10-14T15:12:41.929Z,99946.06
2022-10-14T15:15:32.631Z,99944.22
2022-10-14T15:18:20.378Z,99937.38
2022-10-14T15:20:49.304Z,99936.78
2022-10-14T15:23:50.291Z,99933.78
2022-10-14T15:26:35.169Z,99924.63
2022-10-14T15:29:08.320Z,99920.25
2022-10-14T15:31:37.246Z,99924.03
2022-10-14T15:34:05.514Z,99936.91
2022-10-14T15:36:34.766Z,99935.28
2022-10-14T15:39:02.521Z,99922.22
2022-10-14T15:41:29.663Z,99929.44
2022-10-14T15:43:56.587Z,99923.81
2022-10-14T15:46:41.932Z,99925.56
2022-10-14T15:49:18.536Z,99920.06
2022-10-14T15:51:45.421Z,99931.78
2022-10-14T15:54:12.803Z,99928.78
2022-10-14T15:56:39.728Z,99912.44
2022-10-14T15:59:06.639Z,99928.13
2022-10-14T16:01:37.398Z,99914.81
2022-10-14T16:04:04.363Z,99913.47
2022-10-14T16:06:32.620Z,99915.72
2022-10-14T16:08:59.512Z,99908.28
2022-10-14T16:11:29.799Z,99899.53
2022-10-14T16:13:57.273Z,99901.81
2022-10-14T16:16:45.720Z,99903.81
2022-10-14T16:19:13.029Z,99884.22
2022-10-14T16:21:40.365Z,99901.78
2022-10-14T16:24:08.255Z,99897.09
2022-10-14T16:26:36.680Z,99906.44
2022-10-14T16:29:03.738Z,99891.69
2022-10-14T16:31:30.649Z,99897.25
2022-10-14T16:33:57.671Z,99885.41
2022-10-14T16:36:26.120Z,99884.94
2022-10-14T16:38:53.411Z,99884.34
2022-10-14T16:41:20.450Z,99883.94
2022-10-14T16:43:47.737Z,99880.63
2022-10-14T16:46:15.703Z,99869.44
2022-10-14T16:48:42.929Z,99879.03
2022-10-14T16:51:11.017Z,99887.91
2022-10-14T16:53:40.717Z,99896.34
2022-10-14T16:56:33.624Z,99897.00
2022-10-14T16:59:01.755Z,99890.47
2022-10-14T17:01:29.335Z,99885.50
2022-10-14T17:03:57.131Z,99884.28
2022-10-14T17:06:25.341Z,99884.66
2022-10-14T17:08:52.652Z,99883.00
2022-10-14T17:11:20.313Z,99872.22
2022-10-14T17:13:51.358Z,99882.25
2022-10-14T17:16:18.474Z,99876.66
2022-10-14T17:18:45.640Z,99874.97
2022-10-14T17:21:13.726Z,99878.00
2022-10-14T17:23:43.140Z,99875.06
2022-10-14T17:26:13.756Z,99882.22
2022-10-14T17:28:42.136Z,99875.78
2022-10-14T17:31:16.363Z,99870.06
2022-10-14T17:33:43.919Z,99869.28
2022-10-14T17:36:20.897Z,99872.63
2022-10-14T17:38:50.674Z,99877.09
2022-10-14T17:41:18.554Z,99873.63
2022-10-14T17:43:49.321Z,99873.63
2022-10-14T17:46:21.110Z,99872.22
2022-10-14T17:48:56.123Z,99877.97
2022-10-14T17:51:26.848Z,99873.03
2022-10-14T17:54:02.456Z,99871.00
2022-10-14T17:56:31.489Z,99869.28
2022-10-14T17:59:01.723Z,99871.66
2022-10-14T18:01:37.307Z,99866.94
2022-10-14T18:04:17.661Z,99870.00
2022-10-14T18:06:46.231Z,99870.03
2022-10-14T18:09:13.715Z,99867.97
2022-10-14T18:12:07.511Z,99855.34
2022-10-14T18:14:30.451Z,99858.81
2022-10-14T18:16:59.300Z,99855.69
2022-10-14T18:19:28.407Z,99848.41
2022-10-14T18:21:55.686Z,99850.03
2022-10-14T18:24:23.306Z,99849.66
2022-10-14T18:26:53.692Z,99842.41
2022-10-14T18:29:21.202Z,99842.16
2022-10-14T18:34:24.827Z,99834.56
2022-10-14T18:36:51.728Z,99829.56
2022-10-14T18:39:20.237Z,99830.13
2022-10-14T18:41:47.556Z,99826.41
2022-10-14T18:44:15.177Z,99821.63
2022-10-14T18:46:42.171Z,99816.00
2022-10-14T18:49:11.920Z,99820.63
2022-10-14T18:51:40.830Z,99815.31
2022-10-14T18:54:18.000Z,99817.19
2022-10-14T18:56:45.539Z,99812.75
2022-10-14T18:59:19.216Z,99815.69
2022-10-14T19:01:51.989Z,99812.47
2022-10-14T19:04:22.352Z,99803.38
2022-10-14T19:06:50.153Z,99805.13
2022-10-14T19:09:20.915Z,99807.97
2022-10-14T19:11:51.008Z,99806.41
2022-10-14T19:14:18.175Z,99796.28
2022-10-14T19:16:47.473Z,99793.38
2022-10-14T19:19:18.542Z,99793.28
2022-10-14T19:21:49.056Z,99794.28
2022-10-14T19:24:16.781Z,99792.03
2022-10-14T19:26:46.109Z,99778.38
2022-10-14T19:29:16.708Z,99776.81
2022-10-14T19:31:44.038Z,99776.03
2022-10-14T19:34:15.179Z,99767.69
2022-10-14T19:36:43.888Z,99766.69
2022-10-14T19:39:15.773Z,99765.06
2022-10-14T19:41:44.699Z,99761.75
2022-10-14T19:44:13.666Z,99755.84
2022-10-14T19:46:40.948Z,99748.19
2022-10-14T19:49:07.895Z,99752.22
2022-10-14T19:51:35.539Z,99748.09
2022-10-14T19:54:03.210Z,99746.91
2022-10-14T19:56:30.474Z,99741.34
2022-10-14T19:58:59.310Z,99734.59
2022-10-14T20:01:29.660Z,99737.19
2022-10-14T20:04:00.040Z,99739.00
2022-10-14T20:06:29.227Z,99730.13
2022-10-14T20:08:56.223Z,99723.56
2022-10-14T20:11:24.807Z,99736.78
2022-10-14T20:13:51.706Z,99734.78
2022-10-14T20:16:18.705Z,99721.47
2022-10-14T20:18:45.707Z,99709.22
2022-10-14T20:21:15.267Z,99707.00
2022-10-14T20:23:43.018Z,99710.59
2022-10-14T20:26:17.343Z,99716.59
2022-10-14T20:28:44.470Z,99714.63
2022-10-14T20:31:15.938Z,99708.81
2022-10-14T20:33:43.615Z,99705.00
2022-10-14T20:36:16.817Z,99713.50
2022-10-14T20:38:44.523Z,99710.34
2022-10-14T20:41:17.446Z,99701.28
2022-10-14T20:43:45.572Z,99695.09
2022-10-14T20:46:12.926Z,99697.13
2022-10-14T20:48:39.911Z,99690.78
2022-10-14T20:51:09.123Z,99691.38
2022-10-14T20:53:36.117Z,99685.19
2022-10-14T20:56:06.182Z,99687.69
2022-10-14T20:58:33.778Z,99683.94
2022-10-14T21:01:18.911Z,99678.09
2022-10-14T21:03:47.719Z,99678.75
2022-10-14T21:06:19.563Z,99676.69
2022-10-14T21:08:49.455Z,99663.50
2022-10-14T21:11:20.912Z,99664.69
2022-10-14T21:13:52.596Z,99657.03
2022-10-14T21:16:35.458Z,99659.44
2022-10-14T21:19:08.666Z,99652.94
2022-10-14T21:21:42.007Z,99653.53
2022-10-14T21:24:13.192Z,99647.50
2022-10-14T21:26:40.405Z,99646.13
2022-10-14T21:29:07.292Z,99645.06
2022-10-14T21:31:34.239Z,99642.28
2022-10-14T21:34:06.174Z,99637.66
2022-10-14T21:36:35.099Z,99641.63
2022-10-14T21:39:13.793Z,99637.66
2022-10-14T21:41:41.635Z,99638.41
2022-10-14T21:44:11.297Z,99632.34
2022-10-14T21:46:38.214Z,99626.72
2022-10-14T21:49:05.329Z,99620.25
2022-10-14T21:51:32.818Z,99618.69
2022-10-14T21:53:59.779Z,99612.22
2022-10-14T21:56:27.368Z,99620.44
2022-10-14T21:58:54.610Z,99608.53
2022-10-14T22:01:28.185Z,99608.19
2022-10-14T22:04:04.762Z,99608.53
2022-10-14T22:06:34.554Z,99606.72
2022-10-14T22:09:05.066Z,99597.03
2022-10-14T22:11:38.666Z,99596.84
2022-10-14T22:14:13.931Z,99596.19
2022-10-14T22:16:40.918Z,99599.44
2022-10-14T22:19:08.427Z,99598.00
2022-10-14T22:21:37.102Z,99592.19
2022-10-14T22:24:05.473Z,99586.38
2022-10-14T22:26:33.239Z,99589.75
2022-10-14T22:29:05.932Z,99580.47
2022-10-14T22:31:34.611Z,99581.88
2022-10-14T22:34:04.464Z,99578.50
2022-10-14T22:36:33.104Z,99567.38
2022-10-14T22:39:03.280Z,99569.59
2022-10-14T22:41:35.164Z,99561.75
2022-10-14T22:44:04.062Z,99565.78
2022-10-14T22:46:33.955Z,99564.91
2022-10-14T22:49:02.042Z,99566.16
2022-10-14T22:51:40.668Z,99562.56
2022-10-14T22:54:08.926Z,99561.09
2022-10-14T22:56:36.184Z,99573.97
2022-10-14T22:59:10.170Z,99562.94
2022-10-14T23:01:38.199Z,99564.94
2022-10-14T23:04:06.254Z,99557.13
2022-10-14T23:06:33.583Z,99555.50
2022-10-14T23:09:00.773Z,99558.50
2022-10-14T23:11:29.845Z,99551.81
2022-10-14T23:13:57.561Z,99555.66
2022-10-14T23:16:28.323Z,99551.63
2022-10-14T23:18:55.678Z,99554.44
2022-10-14T23:21:32.050Z,99552.38
2022-10-14T23:24:01.923Z,99552.06
2022-10-14T23:26:34.603Z,99551.44
2022-10-14T23:29:05.441Z,99549.44
2022-10-14T23:31:35.276Z,99552.44
2022-10-14T23:34:07.229Z,99550.41
2022-10-14T23:36:34.538Z,99550.41
2022-10-14T23:39:01.531Z,99552.47
2022-10-14T23:41:28.493Z,99548.44
2022-10-14T23:43:56.761Z,99537.94
2022-10-14T23:46:24.523Z,99544.81
2022-10-14T23:49:01.246Z,99548.41
2022-10-14T23:51:35.144Z,99542.78
2022-10-14T23:54:02.163Z,99545.59
2022-10-14T23:56:29.052Z,99550.06
2022-10-14T23:58:55.958Z,99539.53
